Time;durP1;ratioP1;P1;durP2;ratioP2;P2;SDS_P1;SDS_P2;PMS_P1;PMS_P2;Temp;Humidity;BMP_temperature;BMP_pressure;BME280_temperature;BME280_humidity;BME280_pressure;Samples;Min_cycle;Max_cycle;Signal;HPM_P1;HPM_P2
2021/04/04 00:02:30;;;;;;;22.23;9.32;;;;;;;2.77;61.57;100508.31;3578906;40;20170;-70
2021/04/04 00:05:16;;;;;;;18.15;8.57;;;;;;;2.72;61.62;100509.19;3578742;40;20084;-69
2021/04/04 00:08:01;;;;;;;23.80;9.15;;;;;;;2.66;61.77;100498.84;3577279;40;20171;-70
2021/04/04 00:10:48;;;;;;;18.10;8.40;;;;;;;2.61;61.72;100502.31;3581579;40;20420;-70
2021/04/04 00:13:34;;;;;;;17.55;8.05;;;;;;;2.55;62.03;100504.91;3577254;40;20173;-70
2021/04/04 00:16:19;;;;;;;21.45;8.77;;;;;;;2.51;61.85;100508.38;3578823;40;20076;-70
2021/04/04 00:19:04;;;;;;;15.38;7.97;;;;;;;2.45;61.96;100514.41;3576463;40;20670;-70
2021/04/04 00:21:51;;;;;;;18.88;7.90;;;;;;;2.42;62.27;100512.69;3578240;40;20322;-69
2021/04/04 00:24:37;;;;;;;20.17;7.32;;;;;;;2.38;62.18;100510.13;3577773;40;20530;-70
2021/04/04 00:27:22;;;;;;;11.63;6.57;;;;;;;2.33;62.30;100515.31;3579458;40;20079;-71
2021/04/04 00:30:09;;;;;;;11.95;6.90;;;;;;;2.28;62.40;100516.13;3583576;40;20255;-71
2021/04/04 00:32:54;;;;;;;13.50;6.80;;;;;;;2.25;62.47;100518.72;3577529;40;20158;-79
2021/04/04 00:35:39;;;;;;;11.15;7.30;;;;;;;2.20;62.50;100507.53;3580199;40;20096;-77
2021/04/04 00:38:24;;;;;;;14.13;7.18;;;;;;;2.16;62.74;100513.56;3579410;40;20099;-77
2021/04/04 00:41:09;;;;;;;14.02;7.63;;;;;;;2.10;62.60;100515.31;3582809;40;20083;-77
2021/04/04 00:43:55;;;;;;;14.65;7.15;;;;;;;2.07;62.81;100517.00;3579907;40;20080;-77
2021/04/04 00:46:40;;;;;;;15.88;8.10;;;;;;;2.01;62.96;100517.88;3580767;40;20080;-77
2021/04/04 00:49:25;;;;;;;17.20;7.07;;;;;;;1.97;62.93;100516.16;3581183;40;20071;-79
2021/04/04 00:52:09;;;;;;;13.57;6.55;;;;;;;1.92;63.03;100517.88;3576068;40;20079;-70
2021/04/04 00:54:54;;;;;;;13.80;6.15;;;;;;;1.89;63.12;100525.63;3579744;40;20541;-70
2021/04/04 00:57:40;;;;;;;13.50;5.57;;;;;;;1.86;63.19;100522.16;3577805;40;20178;-70
2021/04/04 01:00:27;;;;;;;15.20;6.65;;;;;;;1.80;63.46;100523.88;3577882;40;20174;-69
2021/04/04 01:03:12;;;;;;;8.52;5.70;;;;;;;1.77;63.29;100531.63;3578928;40;20099;-70
2021/04/04 01:06:00;;;;;;;12.80;5.65;;;;;;;1.74;63.29;100533.34;3576880;40;20156;-70
2021/04/04 01:08:45;;;;;;;10.02;6.20;;;;;;;1.70;63.48;100537.66;3584240;40;20388;-69
2021/04/04 01:11:39;;;;;;;11.93;5.53;;;;;;;1.64;63.55;100541.94;3578489;40;20084;-70
2021/04/04 01:14:29;;;;;;;11.45;5.22;;;;;;;1.62;63.60;100543.66;3580783;40;20460;-69
2021/04/04 01:17:20;;;;;;;12.52;5.95;;;;;;;1.58;63.67;100537.63;3579172;40;20424;-70
2021/04/04 01:20:14;;;;;;;17.05;6.13;;;;;;;1.53;63.71;100542.78;3582776;40;20190;-70
2021/04/04 01:23:14;;;;;;;16.13;7.07;;;;;;;1.46;63.97;100543.63;3576992;40;20515;-70
2021/04/04 01:26:04;;;;;;;13.68;6.72;;;;;;;1.43;63.90;100543.59;3583765;40;20499;-70
2021/04/04 01:28:51;;;;;;;11.30;6.05;;;;;;;1.41;64.18;100537.56;3579494;40;20171;-70
2021/04/04 01:31:37;;;;;;;11.18;6.40;;;;;;;1.39;64.06;100531.53;3580338;40;20174;-70
2021/04/04 01:34:24;;;;;;;15.40;6.72;;;;;;;1.37;64.12;100529.81;3580684;40;20421;-71
2021/04/04 01:37:11;;;;;;;11.30;6.05;;;;;;;1.31;64.37;100528.06;3578914;40;20171;-69
2021/04/04 01:40:00;;;;;;;12.75;5.20;;;;;;;1.26;64.42;100532.34;3579642;40;20305;-69
2021/04/04 01:42:45;;;;;;;14.63;5.88;;;;;;;1.27;64.35;100528.91;3579682;40;20072;-70
2021/04/04 01:45:31;;;;;;;11.88;6.45;;;;;;;1.25;64.41;100537.50;3578439;40;20076;-70
2021/04/04 01:48:17;;;;;;;14.35;6.15;;;;;;;1.23;64.37;100530.59;3578809;40;20107;-70
2021/04/04 01:51:03;;;;;;;13.80;5.75;;;;;;;1.20;64.54;100530.59;3578551;40;20104;-70
2021/04/04 01:53:50;;;;;;;12.80;5.95;;;;;;;1.18;64.40;100523.69;3578808;40;20068;-77
2021/04/04 01:56:36;;;;;;;8.85;5.25;;;;;;;1.16;64.42;100528.00;3579024;40;20459;-78
2021/04/04 01:59:22;;;;;;;12.05;5.32;;;;;;;1.14;64.59;100527.13;3579287;40;20420;-76
2021/04/04 02:02:11;;;;;;;13.82;6.00;;;;;;;1.10;64.62;100527.97;3582223;40;20452;-78
2021/04/04 02:04:57;;;;;;;12.73;6.03;;;;;;;1.11;64.68;100529.69;3584091;40;20075;-76
2021/04/04 02:07:43;;;;;;;8.85;4.95;;;;;;;1.09;64.82;100531.41;3580150;40;20076;-70
2021/04/04 02:10:30;;;;;;;13.30;5.85;;;;;;;1.08;64.84;100540.03;3581435;40;20424;-70
2021/04/04 02:13:16;;;;;;;8.27;4.82;;;;;;;1.09;64.92;100541.75;3578964;40;20333;-70
2021/04/04 02:16:04;;;;;;;9.77;5.30;;;;;;;1.07;64.88;100544.31;3579548;40;20084;-70
2021/04/04 02:18:50;;;;;;;13.80;5.57;;;;;;;1.07;65.03;100543.47;3584064;40;20225;-70
2021/04/04 02:21:35;;;;;;;10.20;6.57;;;;;;;1.05;64.79;100546.03;3580714;40;20431;-70
2021/04/04 02:24:21;;;;;;;11.65;5.53;;;;;;;1.07;64.78;100548.63;3579081;40;20618;-69
2021/04/04 02:27:06;;;;;;;10.50;5.22;;;;;;;1.06;65.01;100546.91;3582746;40;20170;-70
2021/04/04 02:29:51;;;;;;;10.63;5.03;;;;;;;1.04;65.32;100549.47;3579656;40;20293;-70
2021/04/04 02:32:39;;;;;;;10.38;5.13;;;;;;;1.03;65.09;100557.19;3579681;40;20072;-70
2021/04/04 02:35:28;;;;;;;9.25;5.05;;;;;;;1.01;65.30;100553.72;3581266;40;20511;-70
2021/04/04 02:38:17;;;;;;;11.48;5.32;;;;;;;1.01;65.09;100554.59;3579449;40;20099;-71
2021/04/04 02:41:04;;;;;;;10.95;5.45;;;;;;;1.04;65.28;100553.75;3581163;40;20084;-70
2021/04/04 02:43:52;;;;;;;15.90;5.70;;;;;;;1.03;65.23;100546.84;3577890;40;20076;-70
2021/04/04 02:46:40;;;;;;;11.63;5.07;;;;;;;1.02;65.15;100550.28;3581358;40;20143;-70
2021/04/04 02:49:29;;;;;;;12.45;4.75;;;;;;;1.00;65.54;100552.00;3582015;40;20068;-70
2021/04/04 02:52:18;;;;;;;14.65;4.40;;;;;;;1.02;65.28;100555.47;3576783;40;20146;-70
2021/04/04 02:55:04;;;;;;;8.50;4.50;;;;;;;1.02;65.44;100551.16;3581633;40;20084;-70
2021/04/04 02:57:53;;;;;;;11.38;5.32;;;;;;;1.00;65.29;100552.88;3576515;40;20213;-70
2021/04/04 03:00:40;;;;;;;12.23;5.22;;;;;;;1.01;65.57;100548.56;3581890;40;20397;-69
2021/04/04 03:03:27;;;;;;;12.35;5.25;;;;;;;1.02;65.41;100548.56;3581836;40;20400;-70
2021/04/04 03:06:15;;;;;;;11.45;5.18;;;;;;;1.02;65.42;100548.56;3576787;40;20170;-70
2021/04/04 03:09:04;;;;;;;11.38;4.60;;;;;;;1.00;65.54;100541.69;3579166;40;20067;-70
2021/04/04 03:11:49;;;;;;;7.97;4.47;;;;;;;1.01;65.43;100549.44;3578022;40;20080;-69
2021/04/04 03:14:35;;;;;;;10.88;5.03;;;;;;;1.01;65.67;100554.59;3581569;40;20103;-70
2021/04/04 03:17:20;;;;;;;10.93;4.93;;;;;;;1.01;65.55;100551.16;3576663;40;20324;-69
2021/04/04 03:20:08;;;;;;;9.30;4.75;;;;;;;0.98;65.78;100546.84;3579366;40;20406;-69
2021/04/04 03:22:54;;;;;;;11.18;4.97;;;;;;;1.00;65.74;100554.59;3581194;40;20076;-76
2021/04/04 03:25:40;;;;;;;10.52;5.10;;;;;;;1.00;65.66;100557.19;3581610;40;20076;-76
2021/04/04 03:28:26;;;;;;;12.82;5.63;;;;;;;0.99;65.75;100553.72;3582111;40;20178;-76
2021/04/04 03:31:14;;;;;;;10.75;5.07;;;;;;;0.97;65.68;100557.16;3583926;40;20762;-76
2021/04/04 03:34:00;;;;;;;12.63;4.88;;;;;;;0.96;65.98;100558.88;3582602;40;20142;-75
2021/04/04 03:36:46;;;;;;;8.65;4.25;;;;;;;0.97;65.70;100562.31;3580974;40;20072;-75
2021/04/04 03:39:31;;;;;;;11.98;4.57;;;;;;;0.98;65.92;100561.47;3583501;40;20079;-70
2021/04/04 03:42:18;;;;;;;11.40;5.30;;;;;;;0.98;65.86;100564.03;3583718;40;20080;-70
2021/04/04 03:45:03;;;;;;;9.50;4.88;;;;;;;0.99;65.86;100558.88;3579314;40;20181;-71
2021/04/04 03:47:50;;;;;;;13.63;7.22;;;;;;;1.01;65.80;100553.72;3580460;40;20071;-70
2021/04/04 03:50:36;;;;;;;27.10;9.55;;;;;;;1.00;65.79;100563.19;3579069;40;20163;-71
2021/04/04 03:53:25;;;;;;;19.73;8.50;;;;;;;0.98;66.00;100556.31;3583659;40;20079;-70
2021/04/04 03:56:11;;;;;;;14.40;8.07;;;;;;;0.99;66.09;100558.88;3584080;40;20425;-70
2021/04/04 03:59:01;;;;;;;12.85;7.00;;;;;;;0.98;66.11;100558.88;3581838;40;20076;-71
2021/04/04 04:01:47;;;;;;;17.92;8.18;;;;;;;0.98;65.98;100561.47;3579548;40;20083;-71
2021/04/04 04:04:32;;;;;;;13.40;8.02;;;;;;;0.95;66.07;100561.47;3577236;40;20075;-72
2021/04/04 04:07:18;;;;;;;11.27;7.85;;;;;;;0.96;66.00;100563.19;3577353;40;20084;-70
2021/04/04 04:10:05;;;;;;;17.75;8.25;;;;;;;0.98;66.03;100567.50;3582730;40;20075;-70
2021/04/04 04:12:50;;;;;;;18.10;10.23;;;;;;;1.00;65.98;100562.34;3583234;40;20165;-70
2021/04/04 04:15:36;;;;;;;27.00;12.48;;;;;;;1.02;66.12;100573.53;3579630;40;20084;-69
2021/04/04 04:18:21;;;;;;;16.58;9.05;;;;;;;1.02;66.17;100569.22;3580049;40;20515;-70
2021/04/04 04:21:06;;;;;;;21.17;9.48;;;;;;;1.04;65.97;100570.13;3581139;40;20156;-70
2021/04/04 04:23:51;;;;;;;18.13;8.85;;;;;;;1.07;66.04;100579.59;3578986;40;20111;-70
2021/04/04 04:26:36;;;;;;;16.88;8.88;;;;;;;1.13;65.88;100579.63;3582108;40;20317;-70
2021/04/04 04:29:22;;;;;;;16.10;6.68;;;;;;;1.15;66.03;100577.91;3581976;40;20076;-71
2021/04/04 04:32:09;;;;;;;9.73;6.45;;;;;;;1.16;66.12;100570.19;3578198;40;20084;-71
2021/04/04 04:34:55;;;;;;;12.57;7.32;;;;;;;1.21;65.99;100572.78;3580939;40;20072;-71
2021/04/04 04:37:41;;;;;;;12.32;6.82;;;;;;;1.25;65.95;100569.38;3582013;40;20406;-70
2021/04/04 04:40:27;;;;;;;11.20;5.63;;;;;;;1.31;65.81;100569.41;3582821;40;20069;-70
2021/04/04 04:43:15;;;;;;;13.35;8.07;;;;;;;1.36;65.59;100572.84;3583961;40;20489;-70
2021/04/04 04:45:59;;;;;;;17.45;8.27;;;;;;;1.41;65.70;100568.56;3581665;40;20611;-70
2021/04/04 04:48:45;;;;;;;15.32;7.53;;;;;;;1.46;65.74;100569.47;3584997;40;20076;-70
2021/04/04 04:51:30;;;;;;;14.13;7.63;;;;;;;1.55;65.49;100575.50;3583580;40;20079;-69
2021/04/04 04:54:16;;;;;;;20.27;10.55;;;;;;;1.71;65.24;100566.94;3580020;40;20079;-71
2021/04/04 04:57:02;;;;;;;21.15;8.95;;;;;;;1.81;65.25;100568.69;3581603;40;20142;-70
2021/04/04 04:59:48;;;;;;;14.18;7.80;;;;;;;1.91;64.99;100567.84;3581617;40;20080;-71
2021/04/04 05:02:33;;;;;;;16.48;7.47;;;;;;;2.02;64.92;100567.88;3581411;40;20115;-71
2021/04/04 05:05:19;;;;;;;13.18;7.45;;;;;;;2.13;65.06;100574.78;3584094;40;20080;-69
2021/04/04 05:08:05;;;;;;;13.90;6.78;;;;;;;2.26;64.99;100562.72;3584415;40;20185;-69
2021/04/04 05:10:52;;;;;;;15.95;6.75;;;;;;;2.43;64.73;100567.88;3583899;40;20072;-70
2021/04/04 05:13:39;;;;;;;18.63;7.57;;;;;;;2.64;64.40;100570.47;3582244;40;20353;-70
2021/04/04 05:16:24;;;;;;;14.88;8.25;;;;;;;2.89;64.27;100562.66;3581382;40;20119;-69
2021/04/04 05:19:10;;;;;;;16.73;7.60;;;;;;;3.27;63.73;100567.72;3581647;40;20190;-70
2021/04/04 05:21:57;;;;;;;10.13;7.22;;;;;;;4.30;62.54;100574.06;3579526;40;20240;-70
2021/04/04 05:24:43;;;;;;;10.65;6.93;;;;;;;5.11;61.07;100576.78;3580293;40;20079;-71
2021/04/04 05:27:28;;;;;;;10.82;7.00;;;;;;;5.86;59.75;100573.25;3580356;40;20160;-71
2021/04/04 05:30:14;;;;;;;10.15;7.20;;;;;;;6.04;59.61;100573.03;3577611;40;20158;-71
2021/04/04 05:32:58;;;;;;;12.15;6.00;;;;;;;5.94;60.40;100565.38;3575943;40;20148;-70
2021/04/04 05:35:43;;;;;;;7.78;5.78;;;;;;;5.84;60.93;100576.78;3578388;40;20164;-77
2021/04/04 05:38:29;;;;;;;11.95;6.72;;;;;;;6.24;60.10;100585.72;3579328;40;20095;-76
2021/04/04 05:41:17;;;;;;;13.48;6.35;;;;;;;6.97;58.52;100584.50;3584623;40;20068;-76
2021/04/04 05:44:06;;;;;;;10.65;6.25;;;;;;;7.45;57.49;100579.22;3581043;40;20076;-76
2021/04/04 05:46:57;;;;;;;12.50;6.65;;;;;;;7.63;56.79;100581.47;3579312;40;20255;-77
2021/04/04 05:49:54;;;;;;;13.27;6.40;;;;;;;7.68;56.84;100583.09;3581851;40;20079;-78
2021/04/04 05:52:45;;;;;;;10.32;6.30;;;;;;;7.57;56.99;100586.81;3578806;40;20143;-77
2021/04/04 05:55:44;;;;;;;13.00;6.47;;;;;;;7.76;56.74;100586.44;3577645;40;20412;-77
2021/04/04 05:58:34;;;;;;;14.95;7.38;;;;;;;7.88;56.37;100593.97;3578376;40;20226;-77
2021/04/04 06:01:37;;;;;;;14.40;6.93;;;;;;;7.79;56.10;100586.38;3580728;40;20084;-78
2021/04/04 06:04:40;;;;;;;13.38;6.97;;;;;;;7.54;56.10;100592.09;3581517;40;20071;-77
2021/04/04 06:07:52;;;;;;;9.48;5.95;;;;;;;7.39;56.38;100588.94;3581307;40;20076;-78
2021/04/04 06:10:50;;;;;;;13.15;6.80;;;;;;;7.35;56.22;100590.75;3583746;40;20162;-78
2021/04/04 06:13:47;;;;;;;13.48;6.68;;;;;;;7.76;55.36;100596.88;3580105;40;20154;-77
2021/04/04 06:16:41;;;;;;;10.52;6.05;;;;;;;8.39;53.39;100594.59;3584125;40;20401;-77
2021/04/04 06:19:36;;;;;;;12.45;6.63;;;;;;;9.01;51.93;100610.47;3582408;40;20356;-77
2021/04/04 06:22:28;;;;;;;10.75;5.80;;;;;;;9.55;50.74;100601.13;3579483;40;20178;-76
2021/04/04 06:25:25;;;;;;;11.00;6.38;;;;;;;9.33;51.36;100617.44;3585160;40;20166;-77
2021/04/04 06:28:19;;;;;;;9.80;5.25;;;;;;;9.67;50.65;100606.88;3584017;40;20335;-72
2021/04/04 06:31:13;;;;;;;9.50;5.82;;;;;;;10.44;48.94;100608.06;3581377;40;20123;-70
2021/04/04 06:34:06;;;;;;;8.05;4.95;;;;;;;11.24;47.17;100612.34;3580995;40;20064;-70
2021/04/04 06:37:04;;;;;;;9.18;5.32;;;;;;;11.97;45.74;100610.59;3579574;40;20099;-70
2021/04/04 06:40:11;;;;;;;11.27;6.22;;;;;;;12.33;45.09;100609.16;3580528;40;20074;-71
2021/04/04 06:43:07;;;;;;;7.72;5.15;;;;;;;13.17;43.80;100604.81;3581477;40;20079;-71
2021/04/04 06:46:14;;;;;;;14.32;6.10;;;;;;;15.05;40.72;100600.31;3581152;40;20432;-71
2021/04/04 06:49:12;;;;;;;12.18;6.97;;;;;;;18.13;35.27;100605.56;3583773;40;20080;-70
2021/04/04 06:52:05;;;;;;;8.98;6.53;;;;;;;21.02;31.09;100614.47;3582343;40;20083;-70
2021/04/04 06:55:02;;;;;;;10.60;5.30;;;;;;;22.07;28.99;100612.56;3580849;40;20510;-71
2021/04/04 06:58:10;;;;;;;10.40;6.05;;;;;;;23.43;27.84;100602.91;3580576;40;20084;-70
2021/04/04 07:01:07;;;;;;;11.45;6.57;;;;;;;24.75;25.83;100609.97;3581647;40;20169;-70
2021/04/04 07:04:04;;;;;;;12.65;6.70;;;;;;;26.36;23.65;100607.97;3580024;40;20169;-76
2021/04/04 07:07:20;;;;;;;14.30;6.47;;;;;;;27.73;22.21;100613.81;3581913;40;20201;-70
2021/04/04 07:10:11;;;;;;;9.80;5.18;;;;;;;28.25;21.12;100614.56;3583470;40;20197;-70
2021/04/04 07:13:38;;;;;;;9.68;4.97;;;;;;;28.32;21.11;100614.72;3580046;40;20072;-69
2021/04/04 07:16:53;;;;;;;8.07;5.30;;;;;;;28.39;20.26;100605.00;3561796;40;20151;-70
2021/04/04 07:19:54;;;;;;;8.50;5.07;;;;;;;29.12;19.55;100607.75;3577460;40;20388;-69
2021/04/04 07:23:12;;;;;;;10.20;6.43;;;;;;;30.04;18.69;100607.22;3578919;40;20432;-69
2021/04/04 07:26:03;;;;;;;9.90;5.68;;;;;;;30.94;17.55;100609.38;3580244;40;20329;-69
2021/04/04 07:29:30;;;;;;;8.13;5.15;;;;;;;31.20;16.42;100609.81;3583055;40;20330;-70
2021/04/04 07:32:20;;;;;;;9.75;5.43;;;;;;;31.12;16.10;100609.88;3577065;40;20095;-70
2021/04/04 07:35:08;;;;;;;;;;;;;;;32.13;17.99;100611.19;3578011;40;20242;-70
2021/04/04 07:37:59;;;;;;;8.57;5.57;;;;;;;32.47;15.68;100606.97;3581478;40;19937;-69
2021/04/04 07:40:51;;;;;;;8.90;5.45;;;;;;;32.59;14.95;100621.75;3580728;40;20076;-69
2021/04/04 07:43:45;;;;;;;7.82;5.63;;;;;;;32.49;14.98;100615.81;3581729;40;20071;-72
2021/04/04 07:46:37;;;;;;;7.20;4.78;;;;;;;32.64;14.33;100622.84;3580866;40;20173;-71
2021/04/04 07:49:37;;;;;;;9.48;5.47;;;;;;;32.94;14.41;100623.59;3575041;40;20433;-73
2021/04/04 07:52:27;;;;;;;8.77;5.15;;;;;;;33.52;13.18;100620.69;3582915;40;20166;-71
2021/04/04 07:55:16;;;;;;;8.23;5.20;;;;;;;33.69;12.54;100623.94;3583069;40;20321;-71
2021/04/04 07:58:13;;;;;;;9.77;6.05;;;;;;;33.70;12.41;100626.44;3581175;40;20560;-72
2021/04/04 08:01:02;;;;;;;6.68;4.95;;;;;;;33.12;12.76;100619.56;3581139;40;20075;-76
2021/04/04 08:03:53;;;;;;;8.02;5.40;;;;;;;33.71;12.22;100630.00;3582981;40;20230;-75
2021/04/04 08:06:42;;;;;;;10.65;5.78;;;;;;;33.33;12.75;100624.97;3581115;40;20189;-74
2021/04/04 08:09:36;;;;;;;6.63;5.13;;;;;;;33.63;12.01;100631.84;3581380;40;20151;-75
2021/04/04 08:12:34;;;;;;;7.13;4.90;;;;;;;34.59;11.21;100623.75;3579085;40;20084;-73
2021/04/04 08:15:23;;;;;;;8.80;5.10;;;;;;;35.15;11.22;100618.75;3579886;40;20087;-73
2021/04/04 08:18:08;;;;;;;10.38;4.78;;;;;;;34.68;11.32;100627.09;3582127;40;20316;-72
2021/04/04 08:20:57;;;;;;;9.30;5.43;;;;;;;33.97;11.50;100630.19;3581391;40;20083;-71
2021/04/04 08:23:53;;;;;;;7.40;4.72;;;;;;;32.22;12.48;100606.47;3577927;40;20072;-70
2021/04/04 08:26:45;;;;;;;8.50;5.18;;;;;;;33.17;11.87;100619.81;3576557;40;20168;-70
2021/04/04 08:29:34;;;;;;;6.90;4.90;;;;;;;33.77;10.85;100611.03;3582277;40;20067;-71
2021/04/04 08:32:27;;;;;;;6.85;3.92;;;;;;;34.83;10.14;100612.25;3579797;40;20174;-71
2021/04/04 08:35:16;;;;;;;6.40;3.55;;;;;;;35.01;9.56;100610.81;3579787;40;20154;-75
2021/04/04 08:38:06;;;;;;;6.85;4.40;;;;;;;35.26;9.91;100614.56;3579366;40;20443;-73
2021/04/04 08:42:19;;;;;;;10.23;6.93;;;;;;;34.89;9.78;100607.03;3611678;39;20498;-70
2021/04/04 08:45:07;;;;;;;4.45;3.30;;;;;;;34.68;9.90;100606.16;3604942;39;20035;-75
2021/04/04 08:47:53;;;;;;;7.38;4.00;;;;;;;35.34;9.19;100606.19;3609540;39;20044;-71
2021/04/04 08:50:42;;;;;;;4.68;3.47;;;;;;;35.54;8.88;100597.16;3609526;39;20345;-72
2021/04/04 08:53:31;;;;;;;6.45;3.75;;;;;;;35.64;9.06;100595.66;3606630;39;20113;-69
2021/04/04 08:56:19;;;;;;;5.68;3.63;;;;;;;35.73;8.38;100594.38;3608249;39;20477;-71
2021/04/04 08:59:08;;;;;;;6.22;3.40;;;;;;;36.31;8.36;100597.13;3603061;39;20117;-75
2021/04/04 09:01:59;;;;;;;5.03;3.38;;;;;;;36.70;7.72;100586.16;3609723;39;20046;-70
2021/04/04 09:04:44;;;;;;;4.68;3.50;;;;;;;36.71;7.72;100585.94;3607957;39;20142;-70
2021/04/04 09:07:33;;;;;;;6.15;3.85;;;;;;;36.72;7.41;100568.47;3611440;39;20059;-71
2021/04/04 09:10:19;;;;;;;5.53;3.40;;;;;;;36.29;7.54;100571.06;3607985;39;20039;-70
2021/04/04 09:13:08;;;;;;;4.18;2.78;;;;;;;36.43;7.35;100566.38;3609609;39;20042;-71
2021/04/04 09:15:58;;;;;;;3.93;3.00;;;;;;;35.98;7.75;100569.13;3606984;39;20109;-70
2021/04/04 09:18:45;;;;;;;4.05;2.88;;;;;;;36.03;7.82;100567.44;3608377;39;20046;-70
2021/04/04 09:21:37;;;;;;;5.38;3.30;;;;;;;35.92;7.79;100564.53;3607580;39;20043;-69
2021/04/04 09:24:22;;;;;;;6.32;4.00;;;;;;;35.54;7.85;100565.25;3606282;39;20146;-70
2021/04/04 09:27:14;;;;;;;6.25;3.13;;;;;;;34.82;8.54;100561.56;3608522;39;20355;-71
2021/04/04 09:30:01;;;;;;;5.22;3.45;;;;;;;35.52;7.91;100559.19;3602993;39;20295;-70
2021/04/04 09:32:48;;;;;;;6.88;4.25;;;;;;;35.84;7.47;100554.72;3605121;39;20054;-71
2021/04/04 09:35:34;;;;;;;9.20;5.32;;;;;;;35.22;7.75;100564.28;3609053;39;20043;-69
2021/04/04 09:38:29;;;;;;;4.28;2.97;;;;;;;34.47;8.14;100552.72;3600473;39;20047;-72
2021/04/04 09:41:14;;;;;;;4.63;2.88;;;;;;;34.06;8.60;100558.25;3607264;39;20103;-71
2021/04/04 09:44:03;;;;;;;5.38;3.25;;;;;;;33.72;8.40;100558.28;3609270;39;20046;-71
2021/04/04 09:46:52;;;;;;;7.15;4.13;;;;;;;32.42;8.95;100548.72;3610247;39;20066;-70
2021/04/04 09:49:41;;;;;;;5.47;3.50;;;;;;;28.86;11.13;100548.56;3606292;39;20039;-74
2021/04/04 09:52:29;;;;;;;5.50;2.47;;;;;;;26.13;13.07;100539.50;3600181;39;20038;-74
2021/04/04 09:55:17;;;;;;;6.45;3.65;;;;;;;24.76;14.30;100544.63;3599685;39;20046;-75
2021/04/04 09:58:03;;;;;;;5.28;3.83;;;;;;;23.35;15.43;100540.38;3597299;40;20089;-74
2021/04/04 10:00:48;;;;;;;3.88;2.80;;;;;;;21.97;15.92;100535.03;3599527;39;20047;-70
2021/04/04 10:03:33;;;;;;;5.07;3.47;;;;;;;20.87;17.51;100549.03;3598878;39;20038;-70
2021/04/04 10:06:19;;;;;;;3.92;2.75;;;;;;;19.72;18.78;100546.00;3601633;39;20051;-70
2021/04/04 10:09:07;;;;;;;3.10;2.50;;;;;;;18.96;18.78;100529.25;3601264;39;20035;-71
2021/04/04 10:12:06;;;;;;;3.38;2.50;;;;;;;17.82;19.86;100532.38;3600603;39;20419;-71
2021/04/04 10:15:03;;;;;;;8.35;4.43;;;;;;;17.53;20.32;100531.53;3601102;39;20104;-70
2021/04/04 10:17:56;;;;;;;5.03;3.20;;;;;;;17.33;20.64;100530.13;3595683;39;20150;-71
2021/04/04 10:20:44;;;;;;;6.63;3.47;;;;;;;16.82;21.45;100526.19;3600964;39;20043;-70
2021/04/04 10:23:31;;;;;;;4.63;3.00;;;;;;;16.41;21.93;100502.97;3600153;39;20113;-70
2021/04/04 10:26:20;;;;;;;6.20;2.95;;;;;;;16.54;21.70;100519.84;3599064;39;20040;-71
2021/04/04 10:29:05;;;;;;;7.30;3.47;;;;;;;16.24;22.33;100513.69;3597112;39;20138;-70
2021/04/04 10:31:50;;;;;;;5.32;3.10;;;;;;;16.00;22.92;100522.06;3599971;39;20291;-71
2021/04/04 10:34:43;;;;;;;3.72;2.40;;;;;;;15.75;23.54;100509.38;3599984;39;20043;-70
2021/04/04 10:37:28;;;;;;;4.85;3.30;;;;;;;15.82;22.72;100513.41;3599249;39;20716;-74
2021/04/04 10:40:17;;;;;;;3.33;2.28;;;;;;;15.73;22.38;100510.41;3599860;39;20513;-73
2021/04/04 10:43:02;;;;;;;5.70;2.60;;;;;;;15.42;22.70;100500.66;3601179;39;20367;-70
2021/04/04 10:46:02;;;;;;;6.90;3.35;;;;;;;15.20;22.91;100495.63;3603827;39;20035;-69
2021/04/04 10:48:48;;;;;;;5.45;2.30;;;;;;;15.02;23.16;100491.38;3594655;40;20113;-70
2021/04/04 10:51:34;;;;;;;4.72;3.20;;;;;;;14.64;23.41;100488.94;3601893;39;20043;-71
2021/04/04 10:54:19;;;;;;;3.63;2.30;;;;;;;14.33;23.55;100489.56;3600092;39;20077;-75
2021/04/04 10:57:07;;;;;;;3.95;2.95;;;;;;;14.17;23.97;100486.03;3594454;39;20036;-73
2021/04/04 10:59:54;;;;;;;8.43;4.00;;;;;;;14.04;24.20;100485.75;3598776;39;20109;-74
2021/04/04 11:02:40;;;;;;;5.75;3.20;;;;;;;14.01;24.25;100475.38;3599282;39;20158;-70
2021/04/04 11:05:26;;;;;;;4.95;2.20;;;;;;;13.96;24.39;100474.75;3598018;39;20035;-75
2021/04/04 11:08:11;;;;;;;4.00;2.67;;;;;;;14.00;24.30;100478.94;3599357;39;20042;-74
2021/04/04 11:11:00;;;;;;;5.55;3.13;;;;;;;14.00;24.14;100478.94;3599169;39;20058;-76
2021/04/04 11:13:49;;;;;;;4.57;2.78;;;;;;;14.02;23.86;100466.53;3602187;39;20043;-70
2021/04/04 11:16:35;;;;;;;6.80;3.00;;;;;;;13.84;23.90;100472.69;3599381;39;20054;-70
2021/04/04 11:19:21;;;;;;;4.47;2.45;;;;;;;13.45;24.80;100464.88;3602122;39;20068;-70
2021/04/04 11:22:06;;;;;;;5.40;2.22;;;;;;;13.05;25.00;100458.78;3599735;39;20042;-74
2021/04/04 11:24:56;;;;;;;3.88;2.45;;;;;;;12.75;25.15;100463.66;3604823;39;20300;-75
2021/04/04 11:27:44;;;;;;;3.25;2.45;;;;;;;12.79;25.42;100454.69;3601535;39;20039;-74
2021/04/04 11:30:41;;;;;;;4.68;2.38;;;;;;;12.96;25.16;100460.06;3598716;39;20068;-74
2021/04/04 11:33:29;;;;;;;4.38;2.45;;;;;;;13.00;25.02;100451.09;3598280;39;20147;-74
2021/04/04 11:36:13;;;;;;;4.65;2.55;;;;;;;13.31;25.57;100447.94;3598025;39;20093;-71
2021/04/04 11:39:08;;;;;;;5.82;2.40;;;;;;;13.33;25.74;100440.00;3599490;39;20043;-71
2021/04/04 11:41:55;;;;;;;5.45;2.67;;;;;;;13.12;26.02;100437.41;3600803;39;20054;-69
2021/04/04 11:44:52;;;;;;;3.20;2.53;;;;;;;12.86;26.29;100440.34;3602128;39;20408;-69
2021/04/04 11:47:38;;;;;;;4.07;2.28;;;;;;;12.93;25.97;100438.31;3602334;39;20054;-73
2021/04/04 11:50:25;;;;;;;3.85;2.45;;;;;;;13.00;26.46;100427.41;3593246;39;20030;-74
2021/04/04 11:53:40;;;;;;;5.28;2.85;;;;;;;13.10;26.19;100425.22;3599589;39;20043;-74
2021/04/04 11:56:43;;;;;;;2.92;2.08;;;;;;;13.23;26.18;100413.22;3602356;39;20319;-74
2021/04/04 11:59:28;;;;;;;4.60;2.90;;;;;;;13.50;25.84;100413.69;3601204;39;20388;-74
2021/04/04 12:02:16;;;;;;;3.90;2.25;;;;;;;13.60;25.74;100414.13;3600884;39;20123;-74
2021/04/04 12:05:06;;;;;;;4.25;2.13;;;;;;;13.43;26.01;100415.78;3599592;39;20300;-74
2021/04/04 12:07:53;;;;;;;4.78;2.70;;;;;;;13.21;26.30;100414.22;3599718;39;20124;-74
2021/04/04 12:10:40;;;;;;;4.53;3.00;;;;;;;12.96;26.43;100410.06;3600569;39;20036;-70
2021/04/04 12:13:25;;;;;;;10.45;4.55;;;;;;;12.71;26.97;100398.94;3600799;39;20113;-69
2021/04/04 12:16:10;;;;;;;8.48;4.53;;;;;;;12.55;26.89;100403.16;3596350;39;20032;-75
2021/04/04 12:19:00;;;;;;;3.28;2.60;;;;;;;12.43;27.24;100394.03;3597141;39;20076;-76
2021/04/04 12:21:50;;;;;;;9.43;4.50;;;;;;;12.43;27.39;100389.63;3600534;39;20121;-74
2021/04/04 12:24:43;;;;;;;13.07;5.10;;;;;;;12.26;27.57;100384.25;3601836;39;20088;-71
2021/04/04 12:27:28;;;;;;;7.05;4.20;;;;;;;12.13;27.49;100376.03;3597693;39;20047;-75
2021/04/04 12:30:25;;;;;;;12.45;5.60;;;;;;;12.02;27.38;100366.91;3599858;39;20416;-70
2021/04/04 12:33:12;;;;;;;11.95;5.60;;;;;;;11.89;27.83;100367.44;3600473;39;20039;-74
2021/04/04 12:36:04;;;;;;;5.15;2.60;;;;;;;11.83;27.54;100365.03;3601539;39;20098;-74
2021/04/04 12:38:52;;;;;;;8.52;3.78;;;;;;;12.30;27.78;100345.56;3594126;40;20034;-75
2021/04/04 12:41:37;;;;;;;12.27;5.95;;;;;;;13.25;26.84;100352.59;3600852;39;20379;-72
2021/04/04 12:44:31;;;;;;;5.85;2.65;;;;;;;14.03;25.79;100346.97;3601028;39;20047;-70
2021/04/04 12:47:18;;;;;;;2.35;2.08;;;;;;;14.29;25.71;100353.53;3598866;39;20043;-74
2021/04/04 12:50:07;;;;;;;4.10;3.00;;;;;;;14.44;25.46;100344.00;3594428;39;20039;-74
2021/04/04 12:52:53;;;;;;;6.18;3.55;;;;;;;14.81;25.15;100341.13;3602346;39;20042;-70
2021/04/04 12:55:39;;;;;;;6.65;3.55;;;;;;;14.69;25.29;100333.00;3600779;39;20124;-73
2021/04/04 12:58:29;;;;;;;7.15;3.13;;;;;;;14.54;25.57;100334.66;3597931;39;20124;-74
2021/04/04 13:01:14;;;;;;;5.85;2.90;;;;;;;14.57;25.76;100334.50;3598165;39;20301;-74
2021/04/04 13:03:59;;;;;;;4.70;2.85;;;;;;;14.43;25.73;100334.38;3600623;39;20293;-74
2021/04/04 13:06:45;;;;;;;3.22;2.47;;;;;;;14.02;25.78;100324.19;3601719;39;20035;-68
2021/04/04 13:09:29;;;;;;;3.42;2.28;;;;;;;13.68;26.34;100325.03;3599884;39;20042;-77
2021/04/04 13:12:19;;;;;;;5.28;2.95;;;;;;;13.44;26.61;100316.56;3600641;39;20039;-77